메인 페이지
METAR-TAF:

METAR-TAF

공항 :

비토리아, 이스피리투산투, 브라질

위도: 20-16S, 경도: 040-17W, 고도: 4m

현재 날씨관측

예보는 1 시간 8분 전, 22:00시(UTC)에 발표되었습니다.
6kt
온도 22°C
습도 83%
기압 1022 hPa
시정 10km 이상
고도 2100ft 상공 구름 보통

METAR: SBVT 202200Z 19006KT 9999 SCT021 22/19 Q1022

시각: 20:08 (23:08 UTC)

예보

예보는 7 시간 53분 전, 15:15시(UTC)에 발표되었습니다.
예보 대상 시간: 20일 18시부터 21일 18시까지 (UTC)
10kt
시정 10km 이상
고도 2500ft 상공 구름 조금
전환 중
20일 23시부터 21일 01시까지 (UTC)
남서10kt
시정 10km 이상
1500m 미만 상공 구름 및 적란운 없음
전환 중
21일 05시부터 21일 07시까지 (UTC)
북북서5kt
전환 중
21일 13시부터 21일 15시까지 (UTC)
5kt
고도 2500ft 상공 구름 조금
전환 중
21일 16시부터 21일 18시까지 (UTC)
남남동10kt

TAF: SBVT 201515Z 2018/2118 18010KT 9999 FEW025 TN17/2107Z TX27/2116Z BECMG 2023/2101 23010KT CAVOK BECMG 2105/2107 33005KT BECMG 2113/2115 36005KT FEW025 BECMG 2116/2118 16010KT RMK PHD

4,000개 이상의 공항 관측 자료 및 예보 (METAR 및 TAF 보고).

지도상에서 검색 가능한 기상관측소가 노란 점과 빨간 점으로 표시되어 있습니다.

기상관측소 명을 보려면 표시 위로 마우스를 이동하세요.

날씨 관측과 예보를 보려면 클릭하세요.

지도 변경 : 확대하려면 엑스 표시가 있는 녹색 버튼, 축소하려면 빼기 표시가 있는 녹색 버튼, 다음 페이지의 지도를 보려면 녹색 화살표를 클릭하세요.


METAR-TAF: